Time;durP1;ratioP1;P1;durP2;ratioP2;P2;SDS_P1;SDS_P2;PMS_P1;PMS_P2;Temp;Humidity;BMP_temperature;BMP_pressure;BME280_temperature;BME280_humidity;BME280_pressure;Samples;Min_cycle;Max_cycle;Signal;HPM_P1;HPM_P2
2023/07/30 00:01:50;;;;;;;1.73;0.70;;;;;;;;;;4932705;29;20458;-71
2023/07/30 00:04:17;;;;;;;1.80;0.70;;;;;;;;;;4933925;29;20572;-72
2023/07/30 00:06:44;;;;;;;2.00;0.90;;;;;;;;;;4933379;29;20487;-72
2023/07/30 00:09:12;;;;;;;2.33;0.93;;;;;;;;;;4939521;29;20444;-71
2023/07/30 00:11:39;;;;;;;2.57;1.13;;;;;;;;;;4936999;29;20494;-71
2023/07/30 00:14:06;;;;;;;1.97;0.87;;;;;;;;;;4933234;29;20466;-71
2023/07/30 00:16:34;;;;;;;2.10;1.20;;;;;;;;;;4934403;29;20474;-72
2023/07/30 00:19:01;;;;;;;1.70;0.60;;;;;;;;;;4934305;29;20467;-72
2023/07/30 00:21:29;;;;;;;2.00;0.80;;;;;;;;;;4930733;29;20542;-72
2023/07/30 00:23:56;;;;;;;2.10;0.90;;;;;;;;;;4934467;29;20448;-72
2023/07/30 00:26:39;;;;;;;3.13;0.90;;;;;;;;;;4933956;29;20843;-72
2023/07/30 00:29:06;;;;;;;2.70;0.90;;;;;;;;;;4936034;29;20436;-73
2023/07/30 00:31:35;;;;;;;1.80;0.73;;;;;;;;;;4933953;29;21018;-72
2023/07/30 00:34:02;;;;;;;2.20;0.80;;;;;;;;;;4932583;29;20506;-71
2023/07/30 00:36:29;;;;;;;2.03;0.87;;;;;;;;;;4933038;29;20467;-71
2023/07/30 00:38:56;;;;;;;2.30;1.10;;;;;;;;;;4934876;29;20475;-71
2023/07/30 00:41:24;;;;;;;1.80;0.73;;;;;;;;;;4929046;29;20960;-72
2023/07/30 00:43:51;;;;;;;2.70;0.93;;;;;;;;;;4931393;29;20458;-71
2023/07/30 00:46:18;;;;;;;2.20;1.00;;;;;;;;;;4932216;29;21002;-72
2023/07/30 00:48:46;;;;;;;3.13;1.90;;;;;;;;;;4930688;29;20562;-72
2023/07/30 00:51:14;;;;;;;2.40;1.20;;;;;;;;;;4931798;29;20454;-72
2023/07/30 00:53:42;;;;;;;2.10;0.80;;;;;;;;;;4935938;29;20440;-72
2023/07/30 00:56:09;;;;;;;2.30;1.27;;;;;;;;;;4936823;29;20880;-72
2023/07/30 00:58:36;;;;;;;2.17;1.07;;;;;;;;;;4932764;29;21001;-72
2023/07/30 01:01:05;;;;;;;2.10;0.80;;;;;;;;;;4936314;29;20829;-72
2023/07/30 01:03:32;;;;;;;3.40;1.53;;;;;;;;;;4936136;29;20494;-72
2023/07/30 01:06:00;;;;;;;2.60;1.20;;;;;;;;;;4936092;29;20526;-72
2023/07/30 01:08:28;;;;;;;2.67;1.17;;;;;;;;;;4937026;29;20440;-72
2023/07/30 01:10:56;;;;;;;2.60;1.10;;;;;;;;;;4936877;29;20498;-72
2023/07/30 01:13:23;;;;;;;2.50;1.00;;;;;;;;;;4936283;29;20897;-72
2023/07/30 01:15:51;;;;;;;3.10;1.50;;;;;;;;;;4929725;29;20880;-72
2023/07/30 01:18:18;;;;;;;4.10;1.67;;;;;;;;;;4931378;29;20555;-72
2023/07/30 01:20:45;;;;;;;3.50;1.80;;;;;;;;;;4933262;29;20463;-72
2023/07/30 01:23:14;;;;;;;3.70;1.40;;;;;;;;;;4936289;29;20473;-72
2023/07/30 01:25:41;;;;;;;3.30;1.30;;;;;;;;;;4935523;29;20558;-72
2023/07/30 01:28:11;;;;;;;2.33;1.03;;;;;;;;;;4931556;29;20480;-72
2023/07/30 01:30:39;;;;;;;5.33;1.87;;;;;;;;;;4936279;29;20474;-72
2023/07/30 01:33:07;;;;;;;2.27;0.80;;;;;;;;;;4934208;29;20910;-72
2023/07/30 01:35:36;;;;;;;4.60;1.90;;;;;;;;;;4935343;29;20482;-72
2023/07/30 01:38:05;;;;;;;2.80;1.20;;;;;;;;;;4936409;29;20490;-72
2023/07/30 01:40:34;;;;;;;2.47;1.20;;;;;;;;;;4936028;29;20490;-72
2023/07/30 01:43:01;;;;;;;1.80;0.90;;;;;;;;;;4935392;29;20931;-71
2023/07/30 01:45:28;;;;;;;2.53;1.33;;;;;;;;;;4937619;29;20450;-71
2023/07/30 01:47:55;;;;;;;2.87;1.37;;;;;;;;;;4934490;29;20502;-71
2023/07/30 01:50:22;;;;;;;4.20;2.00;;;;;;;;;;4935153;29;20930;-72
2023/07/30 01:52:50;;;;;;;2.93;1.17;;;;;;;;;;4936166;29;20534;-71
2023/07/30 01:55:17;;;;;;;2.87;1.67;;;;;;;;;;4935334;29;20456;-72
2023/07/30 01:57:45;;;;;;;2.47;1.40;;;;;;;;;;4931909;29;20559;-71
2023/07/30 02:00:13;;;;;;;2.87;1.20;;;;;;;;;;4937803;29;20476;-72
2023/07/30 02:02:40;;;;;;;2.33;1.20;;;;;;;;;;4937666;29;20807;-71
2023/07/30 02:05:07;;;;;;;3.70;1.70;;;;;;;;;;4940650;29;20452;-72
2023/07/30 02:07:35;;;;;;;2.90;1.47;;;;;;;;;;4938692;29;20467;-71
2023/07/30 02:10:02;;;;;;;3.07;1.27;;;;;;;;;;4937550;29;20788;-72
2023/07/30 02:12:29;;;;;;;2.73;1.63;;;;;;;;;;4935526;29;20628;-71
2023/07/30 02:14:57;;;;;;;2.70;1.43;;;;;;;;;;4937659;29;20486;-71
2023/07/30 02:17:24;;;;;;;2.93;1.50;;;;;;;;;;4941110;29;20466;-71
2023/07/30 02:19:52;;;;;;;2.70;1.47;;;;;;;;;;4938050;29;20475;-71
2023/07/30 02:22:19;;;;;;;2.50;1.43;;;;;;;;;;4936047;29;20934;-71
2023/07/30 02:24:46;;;;;;;2.70;1.13;;;;;;;;;;4932280;29;20463;-71
2023/07/30 02:27:13;;;;;;;2.47;1.30;;;;;;;;;;4932704;29;20616;-71
2023/07/30 02:29:41;;;;;;;3.67;1.90;;;;;;;;;;4935352;29;20543;-71
2023/07/30 02:32:10;;;;;;;3.20;1.60;;;;;;;;;;4934603;29;20888;-72
2023/07/30 02:34:37;;;;;;;2.60;1.50;;;;;;;;;;4933251;29;20463;-71
2023/07/30 02:37:04;;;;;;;2.97;1.40;;;;;;;;;;4933486;29;20479;-71
2023/07/30 02:39:32;;;;;;;3.13;1.43;;;;;;;;;;4934359;29;20486;-71
2023/07/30 02:41:59;;;;;;;2.70;1.17;;;;;;;;;;4933865;29;20538;-73
2023/07/30 02:44:26;;;;;;;5.13;1.33;;;;;;;;;;4930740;29;20894;-71
2023/07/30 02:46:53;;;;;;;2.60;1.50;;;;;;;;;;4932886;29;20491;-72
2023/07/30 02:49:21;;;;;;;2.90;1.20;;;;;;;;;;4930795;29;20456;-73
2023/07/30 02:51:49;;;;;;;4.23;2.67;;;;;;;;;;4935533;29;20801;-72
2023/07/30 02:54:17;;;;;;;3.20;1.77;;;;;;;;;;4932458;29;20474;-72
2023/07/30 02:56:45;;;;;;;3.70;1.50;;;;;;;;;;4930704;29;20954;-72
2023/07/30 02:59:12;;;;;;;3.37;2.00;;;;;;;;;;4930527;29;20480;-72
2023/07/30 03:01:39;;;;;;;3.30;1.77;;;;;;;;;;4928688;29;21140;-72
2023/07/30 03:04:06;;;;;;;3.30;1.77;;;;;;;;;;4932896;29;20495;-73
2023/07/30 03:06:35;;;;;;;4.30;1.80;;;;;;;;;;4930911;29;20492;-71
2023/07/30 03:09:02;;;;;;;3.20;1.53;;;;;;;;;;4935432;29;20807;-72
2023/07/30 03:11:29;;;;;;;3.40;1.57;;;;;;;;;;4933154;29;20538;-72
2023/07/30 03:13:56;;;;;;;4.00;1.50;;;;;;;;;;4931274;29;20452;-72
2023/07/30 03:16:25;;;;;;;2.73;1.30;;;;;;;;;;4931410;29;20479;-72
2023/07/30 03:18:52;;;;;;;3.13;1.40;;;;;;;;;;4933340;29;21042;-72
2023/07/30 03:21:19;;;;;;;2.23;1.20;;;;;;;;;;4931905;29;20462;-72
2023/07/30 03:23:48;;;;;;;3.27;1.47;;;;;;;;;;4933036;29;20456;-72
2023/07/30 03:26:15;;;;;;;2.97;1.43;;;;;;;;;;4934485;29;20493;-72
2023/07/30 03:28:42;;;;;;;2.53;1.70;;;;;;;;;;4931034;29;20491;-72
2023/07/30 03:31:10;;;;;;;2.70;1.40;;;;;;;;;;4931547;29;20460;-72
2023/07/30 03:33:39;;;;;;;2.80;1.33;;;;;;;;;;4932994;29;20463;-72
2023/07/30 03:36:06;;;;;;;2.73;1.37;;;;;;;;;;4933441;29;20484;-71
2023/07/30 03:38:33;;;;;;;2.77;1.80;;;;;;;;;;4931923;29;20941;-72
2023/07/30 03:41:01;;;;;;;5.73;2.30;;;;;;;;;;4931416;29;20471;-72
2023/07/30 03:43:29;;;;;;;2.30;1.40;;;;;;;;;;4932504;29;20482;-72
2023/07/30 03:45:56;;;;;;;3.43;1.50;;;;;;;;;;4929611;29;20486;-72
2023/07/30 03:48:23;;;;;;;3.10;1.30;;;;;;;;;;4933611;29;20467;-71
2023/07/30 03:50:50;;;;;;;3.13;1.60;;;;;;;;;;4931750;29;20556;-72
2023/07/30 03:53:17;;;;;;;3.47;1.70;;;;;;;;;;4932614;29;20546;-71
2023/07/30 03:55:44;;;;;;;3.37;1.70;;;;;;;;;;4932676;29;20486;-71
2023/07/30 03:58:13;;;;;;;2.93;1.93;;;;;;;;;;4933089;29;20463;-71
2023/07/30 04:00:40;;;;;;;4.13;1.33;;;;;;;;;;5020880;23;20899;-68
2023/07/30 04:03:07;;;;;;;3.00;1.67;;;;;;;;;;4934430;29;20451;-68
2023/07/30 04:05:34;;;;;;;2.60;1.20;;;;;;;;;;4934065;29;20487;-68
2023/07/30 04:08:01;;;;;;;2.13;1.10;;;;;;;;;;4935560;29;20440;-68
2023/07/30 04:10:29;;;;;;;3.40;1.70;;;;;;;;;;4932717;29;20543;-67
2023/07/30 04:12:56;;;;;;;2.77;1.30;;;;;;;;;;4931676;29;20479;-67
2023/07/30 04:15:24;;;;;;;3.47;1.53;;;;;;;;;;4932216;29;20910;-68
2023/07/30 04:17:51;;;;;;;2.40;1.30;;;;;;;;;;4932207;29;20455;-67
2023/07/30 04:20:20;;;;;;;2.60;1.47;;;;;;;;;;4933038;29;20483;-67
2023/07/30 04:22:47;;;;;;;2.10;1.10;;;;;;;;;;4932119;29;20447;-68
2023/07/30 04:25:14;;;;;;;2.80;1.73;;;;;;;;;;4932364;29;20452;-67
2023/07/30 04:27:43;;;;;;;2.70;1.53;;;;;;;;;;4932587;29;20970;-68
2023/07/30 04:30:11;;;;;;;3.77;1.90;;;;;;;;;;4934709;29;20480;-68
2023/07/30 04:32:39;;;;;;;3.03;1.40;;;;;;;;;;4935243;29;20455;-67
2023/07/30 04:35:07;;;;;;;2.13;1.23;;;;;;;;;;4935160;29;20958;-68
2023/07/30 04:37:34;;;;;;;3.50;1.20;;;;;;;;;;4933197;29;20476;-68
2023/07/30 04:40:03;;;;;;;2.80;1.33;;;;;;;;;;4936661;29;20562;-68
2023/07/30 04:42:30;;;;;;;4.30;2.10;;;;;;;;;;4933940;29;20554;-68
2023/07/30 04:44:57;;;;;;;3.23;1.57;;;;;;;;;;4934980;29;20467;-68
2023/07/30 04:47:25;;;;;;;4.07;1.30;;;;;;;;;;4934723;29;21053;-68
2023/07/30 04:49:53;;;;;;;2.43;1.10;;;;;;;;;;4935525;29;20462;-68
2023/07/30 04:52:21;;;;;;;1.90;0.87;;;;;;;;;;4936792;29;20461;-68
2023/07/30 04:54:49;;;;;;;2.77;1.40;;;;;;;;;;4935883;29;20452;-68
2023/07/30 04:57:16;;;;;;;3.17;1.60;;;;;;;;;;4934726;29;20475;-68
2023/07/30 04:59:44;;;;;;;3.13;1.50;;;;;;;;;;4935316;29;21071;-68
2023/07/30 05:02:11;;;;;;;3.00;1.20;;;;;;;;;;4934601;29;20467;-67
2023/07/30 05:04:38;;;;;;;2.93;1.90;;;;;;;;;;4933045;29;20467;-67
2023/07/30 05:07:07;;;;;;;2.57;1.00;;;;;;;;;;4936593;29;21003;-68
2023/07/30 05:09:34;;;;;;;2.27;1.03;;;;;;;;;;4932181;29;20460;-67
2023/07/30 05:12:04;;;;;;;2.20;1.20;;;;;;;;;;4937472;29;20456;-66
2023/07/30 05:14:31;;;;;;;2.40;1.23;;;;;;;;;;4934555;29;20467;-68
2023/07/30 05:16:58;;;;;;;2.50;1.33;;;;;;;;;;4935514;29;21067;-68
2023/07/30 05:19:25;;;;;;;3.30;1.50;;;;;;;;;;4936173;29;20568;-68
2023/07/30 05:21:52;;;;;;;3.23;1.70;;;;;;;;;;4934232;29;21116;-68
2023/07/30 05:24:21;;;;;;;3.60;1.40;;;;;;;;;;4932454;29;20546;-68
2023/07/30 05:26:48;;;;;;;2.80;1.57;;;;;;;;;;4935264;29;20489;-68
2023/07/30 05:29:15;;;;;;;2.70;1.60;;;;;;;;;;4934614;29;20938;-68
2023/07/30 05:31:42;;;;;;;2.33;1.43;;;;;;;;;;4933340;29;20460;-68
2023/07/30 05:34:09;;;;;;;2.60;1.23;;;;;;;;;;4936483;29;20527;-68
2023/07/30 05:36:37;;;;;;;2.53;1.70;;;;;;;;;;4938922;29;20972;-68
2023/07/30 05:39:04;;;;;;;3.10;1.43;;;;;;;;;;4937761;29;20539;-68
2023/07/30 05:41:32;;;;;;;3.40;2.23;;;;;;;;;;4934933;29;20511;-68
2023/07/30 05:43:59;;;;;;;2.77;1.33;;;;;;;;;;4937151;29;20451;-68
2023/07/30 05:46:27;;;;;;;3.13;1.50;;;;;;;;;;4935022;29;20484;-68
2023/07/30 05:48:54;;;;;;;3.10;1.50;;;;;;;;;;4933534;29;20473;-68
2023/07/30 05:51:23;;;;;;;2.97;1.40;;;;;;;;;;4936633;29;20831;-68
2023/07/30 05:53:51;;;;;;;2.53;1.40;;;;;;;;;;4934316;29;20456;-68
2023/07/30 05:56:18;;;;;;;2.80;1.53;;;;;;;;;;4932784;29;20477;-68
2023/07/30 05:58:49;;;;;;;3.33;1.40;;;;;;;;;;4933871;29;20456;-68
2023/07/30 06:01:19;;;;;;;2.70;1.40;;;;;;;;;;4934016;29;20483;-67
2023/07/30 06:03:46;;;;;;;3.00;1.70;;;;;;;;;;4934124;29;20468;-68
2023/07/30 06:06:13;;;;;;;4.00;1.57;;;;;;;;;;4932950;29;20486;-67
2023/07/30 06:08:41;;;;;;;5.30;1.60;;;;;;;;;;4934853;29;21040;-68
2023/07/30 06:11:08;;;;;;;3.07;1.80;;;;;;;;;;4932618;29;20558;-68
2023/07/30 06:13:35;;;;;;;2.30;1.27;;;;;;;;;;4933242;29;20473;-68
2023/07/30 06:16:04;;;;;;;2.33;1.20;;;;;;;;;;4935085;29;20582;-68
2023/07/30 06:18:31;;;;;;;2.20;1.00;;;;;;;;;;4933258;29;20495;-68
2023/07/30 06:20:58;;;;;;;2.53;1.27;;;;;;;;;;4933195;29;20488;-68
2023/07/30 06:23:25;;;;;;;3.50;1.47;;;;;;;;;;4936572;29;20466;-68
2023/07/30 06:25:52;;;;;;;2.23;1.27;;;;;;;;;;4934360;29;20483;-68
2023/07/30 06:28:19;;;;;;;2.50;1.30;;;;;;;;;;4932320;29;20460;-68
2023/07/30 06:30:46;;;;;;;3.50;1.67;;;;;;;;;;4934110;29;20463;-68
2023/07/30 06:33:15;;;;;;;2.43;1.30;;;;;;;;;;4932946;29;20469;-68
2023/07/30 06:35:42;;;;;;;2.83;1.63;;;;;;;;;;4933026;29;20507;-68
2023/07/30 06:38:10;;;;;;;2.30;1.00;;;;;;;;;;4934208;29;20548;-68
2023/07/30 06:40:37;;;;;;;2.73;1.10;;;;;;;;;;4935684;29;20566;-68
2023/07/30 06:43:04;;;;;;;2.77;1.10;;;;;;;;;;4933712;29;20949;-68
2023/07/30 06:45:31;;;;;;;3.30;1.67;;;;;;;;;;4934077;29;20566;-68
2023/07/30 06:47:58;;;;;;;2.40;1.03;;;;;;;;;;4934510;29;20491;-68
2023/07/30 06:50:27;;;;;;;2.67;1.27;;;;;;;;;;4934422;29;20463;-68
2023/07/30 06:52:54;;;;;;;2.27;1.10;;;;;;;;;;4932655;29;20519;-68
2023/07/30 06:55:21;;;;;;;2.40;1.20;;;;;;;;;;4933445;29;20463;-68
2023/07/30 06:57:48;;;;;;;2.50;1.83;;;;;;;;;;4932479;29;20547;-68
2023/07/30 07:00:21;;;;;;;1.90;0.97;;;;;;;;;;4934060;29;20487;-69
2023/07/30 07:02:48;;;;;;;2.40;1.10;;;;;;;;;;4934873;29;20495;-67
2023/07/30 07:05:15;;;;;;;2.00;1.00;;;;;;;;;;4932368;29;20464;-67
2023/07/30 07:07:44;;;;;;;2.10;0.87;;;;;;;;;;4932060;29;20456;-68
2023/07/30 07:10:11;;;;;;;3.00;1.40;;;;;;;;;;4934840;29;20452;-68
2023/07/30 07:12:38;;;;;;;2.30;1.10;;;;;;;;;;4932095;29;20494;-69
2023/07/30 07:15:06;;;;;;;1.80;0.73;;;;;;;;;;4934516;29;20800;-67
2023/07/30 07:17:33;;;;;;;2.30;1.00;;;;;;;;;;4931765;29;20492;-68
2023/07/30 07:20:01;;;;;;;1.97;0.90;;;;;;;;;;4931132;29;21041;-67
2023/07/30 07:22:28;;;;;;;2.13;0.90;;;;;;;;;;4929824;29;20471;-68
2023/07/30 07:24:56;;;;;;;3.17;1.20;;;;;;;;;;4934619;29;20559;-69
2023/07/30 07:27:24;;;;;;;2.30;1.10;;;;;;;;;;4934355;29;20466;-66
2023/07/30 07:29:51;;;;;;;2.20;1.10;;;;;;;;;;4933797;29;20483;-67
2023/07/30 07:32:18;;;;;;;1.70;0.70;;;;;;;;;;4931334;29;20458;-67
2023/07/30 07:34:48;;;;;;;2.37;1.27;;;;;;;;;;4934454;29;20949;-67
2023/07/30 07:37:16;;;;;;;1.77;0.80;;;;;;;;;;4930635;29;20479;-67
2023/07/30 07:39:43;;;;;;;2.27;1.10;;;;;;;;;;4931394;29;20444;-67
2023/07/30 07:42:12;;;;;;;2.00;1.13;;;;;;;;;;4930166;29;20467;-68
2023/07/30 07:44:39;;;;;;;3.40;1.00;;;;;;;;;;4934770;29;20519;-67
2023/07/30 07:47:06;;;;;;;2.17;1.00;;;;;;;;;;4932554;29;20460;-67
2023/07/30 07:49:33;;;;;;;1.57;0.60;;;;;;;;;;4934264;29;20893;-67
2023/07/30 07:52:00;;;;;;;2.60;0.97;;;;;;;;;;4932120;29;21030;-67
2023/07/30 07:54:27;;;;;;;2.00;0.73;;;;;;;;;;4932442;29;20469;-67
2023/07/30 07:56:54;;;;;;;1.90;0.80;;;;;;;;;;4929312;29;20479;-67
2023/07/30 07:59:23;;;;;;;1.93;0.93;;;;;;;;;;4932103;29;20890;-66
2023/07/30 08:01:50;;;;;;;3.80;1.30;;;;;;;;;;4931668;29;20574;-67
2023/07/30 08:04:18;;;;;;;2.60;1.03;;;;;;;;;;4935988;29;20551;-67
2023/07/30 08:06:45;;;;;;;1.93;0.83;;;;;;;;;;4934858;29;20485;-67
2023/07/30 08:09:12;;;;;;;1.70;0.87;;;;;;;;;;4932962;29;20551;-67
2023/07/30 08:11:39;;;;;;;1.90;0.87;;;;;;;;;;4931026;29;20945;-67
2023/07/30 08:14:07;;;;;;;2.70;1.17;;;;;;;;;;4934317;29;20458;-67
2023/07/30 08:16:35;;;;;;;2.57;0.87;;;;;;;;;;4932944;29;20831;-67
2023/07/30 08:19:02;;;;;;;3.17;1.00;;;;;;;;;;4936318;29;20455;-68
2023/07/30 08:21:29;;;;;;;1.90;0.80;;;;;;;;;;4933446;29;20480;-67
2023/07/30 08:23:56;;;;;;;1.70;0.63;;;;;;;;;;4933695;29;21109;-67
2023/07/30 08:26:23;;;;;;;2.07;1.03;;;;;;;;;;4936402;29;20469;-68
2023/07/30 08:28:50;;;;;;;1.90;0.80;;;;;;;;;;4935571;29;20465;-69
2023/07/30 08:31:18;;;;;;;2.50;1.00;;;;;;;;;;4932595;29;20455;-67
2023/07/30 08:33:46;;;;;;;2.10;0.83;;;;;;;;;;4936400;29;20447;-68
2023/07/30 08:36:13;;;;;;;1.80;0.80;;;;;;;;;;4934314;29;20499;-67
2023/07/30 08:38:40;;;;;;;2.17;0.87;;;;;;;;;;4936441;29;20530;-67
2023/07/30 08:41:08;;;;;;;2.33;1.00;;;;;;;;;;4931135;29;20491;-68
2023/07/30 08:43:35;;;;;;;2.70;0.70;;;;;;;;;;4933690;29;20558;-67
2023/07/30 08:46:03;;;;;;;1.80;0.90;;;;;;;;;;4930561;29;20491;-67
2023/07/30 08:48:30;;;;;;;1.87;0.80;;;;;;;;;;4931114;29;20925;-67
2023/07/30 08:50:59;;;;;;;1.70;0.77;;;;;;;;;;4931568;29;20467;-68
2023/07/30 08:53:27;;;;;;;2.00;1.10;;;;;;;;;;4934300;29;20933;-67
2023/07/30 08:55:55;;;;;;;2.00;1.00;;;;;;;;;;4936244;29;20523;-67
2023/07/30 08:58:22;;;;;;;2.00;1.00;;;;;;;;;;4933210;29;20907;-68
2023/07/30 09:00:51;;;;;;;2.00;0.93;;;;;;;;;;4934082;29;20850;-67
2023/07/30 09:03:19;;;;;;;2.00;1.00;;;;;;;;;;4934140;29;21009;-68
2023/07/30 09:05:46;;;;;;;2.23;1.00;;;;;;;;;;4935630;29;20818;-68
2023/07/30 09:08:15;;;;;;;2.07;1.00;;;;;;;;;;4932800;29;20464;-67
2023/07/30 09:10:42;;;;;;;2.50;1.00;;;;;;;;;;4932424;29;20452;-67
2023/07/30 09:13:09;;;;;;;1.83;0.73;;;;;;;;;;4933980;29;20456;-67
2023/07/30 09:15:38;;;;;;;2.03;0.90;;;;;;;;;;4932562;29;20498;-68
2023/07/30 09:18:05;;;;;;;2.23;1.03;;;;;;;;;;4935203;29;20530;-67
2023/07/30 09:20:38;;;;;;;2.67;1.10;;;;;;;;;;4935275;29;20467;-68
2023/07/30 09:23:06;;;;;;;2.53;1.30;;;;;;;;;;4932709;29;20459;-68
2023/07/30 09:25:35;;;;;;;2.00;0.90;;;;;;;;;;4933179;29;20554;-68
2023/07/30 09:28:02;;;;;;;1.60;0.87;;;;;;;;;;4935917;29;20586;-68
2023/07/30 09:30:29;;;;;;;4.60;1.50;;;;;;;;;;4930558;29;21002;-68
2023/07/30 09:32:57;;;;;;;2.00;1.00;;;;;;;;;;4933096;29;20464;-69
2023/07/30 09:35:25;;;;;;;1.70;0.97;;;;;;;;;;4935279;29;20448;-68
2023/07/30 09:37:58;;;;;;;1.87;0.90;;;;;;;;;;4932208;29;20469;-68
2023/07/30 09:40:32;;;;;;;2.17;0.97;;;;;;;;;;4932457;29;20459;-70
2023/07/30 09:43:01;;;;;;;1.60;0.80;;;;;;;;;;4932882;29;20535;-68
2023/07/30 09:45:28;;;;;;;1.70;0.80;;;;;;;;;;4931376;29;20496;-68
2023/07/30 09:47:57;;;;;;;2.00;1.07;;;;;;;;;;4933129;29;20715;-68
2023/07/30 09:50:24;;;;;;;2.17;0.90;;;;;;;;;;4929817;29;20467;-68
2023/07/30 09:52:51;;;;;;;3.00;1.10;;;;;;;;;;4935321;29;20463;-68
2023/07/30 09:55:19;;;;;;;2.53;1.30;;;;;;;;;;4931222;29;20462;-67
2023/07/30 09:57:46;;;;;;;2.30;0.90;;;;;;;;;;4933540;29;20444;-67
2023/07/30 10:00:15;;;;;;;4.17;1.23;;;;;;;;;;4974392;23;20496;-64
2023/07/30 10:02:44;;;;;;;1.90;1.10;;;;;;;;;;4931270;29;20484;-66
2023/07/30 10:05:13;;;;;;;1.70;0.80;;;;;;;;;;4933458;29;20462;-66
2023/07/30 10:07:42;;;;;;;1.97;0.80;;;;;;;;;;4915218;29;21915;-68
2023/07/30 10:10:10;;;;;;;2.47;1.10;;;;;;;;;;4915872;29;20459;-67
2023/07/30 10:12:37;;;;;;;2.27;1.13;;;;;;;;;;4914360;29;20437;-68
2023/07/30 10:15:05;;;;;;;2.17;0.97;;;;;;;;;;4913756;29;20488;-65
2023/07/30 10:17:35;;;;;;;4.07;1.30;;;;;;;;;;4915779;29;20473;-66
2023/07/30 10:20:17;;;;;;;2.20;1.33;;;;;;;;;;4911511;29;20504;-67
2023/07/30 10:22:47;;;;;;;2.40;1.03;;;;;;;;;;4915646;29;20576;-67
2023/07/30 10:25:14;;;;;;;2.40;1.20;;;;;;;;;;4910549;29;20562;-66
2023/07/30 10:27:43;;;;;;;2.20;1.20;;;;;;;;;;4917823;29;20489;-66
2023/07/30 10:30:10;;;;;;;2.17;1.13;;;;;;;;;;4911378;29;20496;-66
2023/07/30 10:32:43;;;;;;;2.63;1.13;;;;;;;;;;4915529;29;20452;-64
2023/07/30 10:35:10;;;;;;;1.80;0.93;;;;;;;;;;4913698;29;20931;-66
2023/07/30 10:37:37;;;;;;;2.90;1.17;;;;;;;;;;4916132;29;20471;-66
2023/07/30 10:40:17;;;;;;;1.83;1.00;;;;;;;;;;4910229;29;20463;-66
2023/07/30 10:42:45;;;;;;;2.23;1.17;;;;;;;;;;4914642;29;20483;-66
2023/07/30 10:45:12;;;;;;;1.80;1.10;;;;;;;;;;4912630;29;20461;-66
2023/07/30 10:47:39;;;;;;;2.03;1.30;;;;;;;;;;4912553;29;20484;-66
2023/07/30 10:50:11;;;;;;;3.00;1.47;;;;;;;;;;4912774;29;20540;-67
2023/07/30 10:52:38;;;;;;;2.20;1.07;;;;;;;;;;4915556;29;20528;-66
2023/07/30 10:55:06;;;;;;;2.83;1.27;;;;;;;;;;4910022;29;20460;-65
2023/07/30 10:57:33;;;;;;;1.73;0.93;;;;;;;;;;4913679;29;20488;-65
2023/07/30 11:00:00;;;;;;;1.90;1.00;;;;;;;;;;4913600;29;20967;-66
2023/07/30 11:02:29;;;;;;;2.47;1.00;;;;;;;;;;4911832;29;20867;-65
2023/07/30 11:04:56;;;;;;;2.23;1.17;;;;;;;;;;4914127;29;20468;-65
2023/07/30 11:07:25;;;;;;;3.20;1.20;;;;;;;;;;4914865;29;20470;-66
2023/07/30 11:10:01;;;;;;;1.97;1.17;;;;;;;;;;4913384;29;20465;-68
2023/07/30 11:12:28;;;;;;;2.90;1.03;;;;;;;;;;4911909;29;20468;-66
2023/07/30 11:15:01;;;;;;;2.17;0.83;;;;;;;;;;4913050;29;20441;-66
2023/07/30 11:17:28;;;;;;;3.30;1.53;;;;;;;;;;4912605;29;20468;-66
2023/07/30 11:19:56;;;;;;;1.87;1.00;;;;;;;;;;4911336;29;20522;-66
2023/07/30 11:22:32;;;;;;;3.30;1.17;;;;;;;;;;4911044;29;20887;-66
2023/07/30 11:25:01;;;;;;;3.10;1.20;;;;;;;;;;4912188;29;20460;-66
2023/07/30 11:27:28;;;;;;;2.23;0.93;;;;;;;;;;4914403;29;20478;-66
2023/07/30 11:29:56;;;;;;;3.13;1.47;;;;;;;;;;4913578;29;20965;-65
2023/07/30 11:32:25;;;;;;;3.00;0.87;;;;;;;;;;4912890;29;20812;-65
2023/07/30 11:34:52;;;;;;;1.90;1.10;;;;;;;;;;4912348;29;20531;-65
2023/07/30 11:37:19;;;;;;;2.00;1.10;;;;;;;;;;4916415;29;21124;-66
2023/07/30 11:39:48;;;;;;;2.37;1.40;;;;;;;;;;4914839;29;20951;-64
2023/07/30 11:42:15;;;;;;;2.20;1.20;;;;;;;;;;4913316;29;20574;-67
2023/07/30 11:44:43;;;;;;;2.17;1.10;;;;;;;;;;4913843;29;20492;-67
2023/07/30 11:47:10;;;;;;;1.83;1.00;;;;;;;;;;4914041;29;20636;-67
2023/07/30 11:49:37;;;;;;;1.50;0.80;;;;;;;;;;4918399;29;20465;-67
2023/07/30 11:52:08;;;;;;;2.00;1.07;;;;;;;;;;4916032;29;20635;-67
2023/07/30 11:54:35;;;;;;;2.50;1.00;;;;;;;;;;4914560;29;20467;-67
2023/07/30 11:57:04;;;;;;;2.60;1.20;;;;;;;;;;4914549;29;21028;-67
2023/07/30 11:59:32;;;;;;;1.70;0.87;;;;;;;;;;4917647;29;20463;-67
2023/07/30 12:01:59;;;;;;;2.77;1.20;;;;;;;;;;4911612;29;20877;-67
2023/07/30 12:04:26;;;;;;;2.03;0.83;;;;;;;;;;4917450;29;20471;-66
2023/07/30 12:06:54;;;;;;;1.57;0.77;;;;;;;;;;4918439;29;20464;-66
2023/07/30 12:09:22;;;;;;;2.83;1.43;;;;;;;;;;4917029;29;20464;-67
2023/07/30 12:11:51;;;;;;;2.07;1.13;;;;;;;;;;4916840;29;20469;-64
2023/07/30 12:14:19;;;;;;;2.17;1.00;;;;;;;;;;4918247;29;20449;-64
2023/07/30 12:16:47;;;;;;;2.63;1.63;;;;;;;;;;4907624;29;20512;-67
2023/07/30 12:19:14;;;;;;;2.73;1.20;;;;;;;;;;4913444;29;20441;-67
2023/07/30 12:21:41;;;;;;;3.40;1.77;;;;;;;;;;4913904;29;20480;-67
2023/07/30 12:24:08;;;;;;;1.90;1.00;;;;;;;;;;4914098;29;20915;-64
2023/07/30 12:26:35;;;;;;;1.80;1.00;;;;;;;;;;4915146;29;20490;-65
2023/07/30 12:29:02;;;;;;;2.00;1.00;;;;;;;;;;4911432;29;20465;-64
2023/07/30 12:31:31;;;;;;;2.20;1.30;;;;;;;;;;4911940;29;20967;-67
2023/07/30 12:33:58;;;;;;;1.80;0.93;;;;;;;;;;4910922;29;20468;-66
2023/07/30 12:36:25;;;;;;;2.50;1.23;;;;;;;;;;4911923;29;20519;-64
2023/07/30 12:38:53;;;;;;;2.23;1.17;;;;;;;;;;4912373;29;20953;-64
2023/07/30 12:41:25;;;;;;;2.10;1.10;;;;;;;;;;4912107;29;20504;-65
2023/07/30 12:43:52;;;;;;;1.80;0.87;;;;;;;;;;4911012;29;20924;-65
2023/07/30 12:46:19;;;;;;;2.13;0.90;;;;;;;;;;4912443;29;20488;-64
2023/07/30 12:48:48;;;;;;;2.50;1.30;;;;;;;;;;4912153;29;20829;-65
2023/07/30 12:51:15;;;;;;;2.73;1.50;;;;;;;;;;4916667;29;20464;-65
2023/07/30 12:53:43;;;;;;;2.23;1.13;;;;;;;;;;4915432;29;20463;-65
2023/07/30 12:56:10;;;;;;;1.97;1.10;;;;;;;;;;4913562;29;21003;-65
2023/07/30 12:58:37;;;;;;;2.30;0.97;;;;;;;;;;4918171;29;20444;-65
2023/07/30 13:01:07;;;;;;;3.17;1.33;;;;;;;;;;4914887;29;20514;-66
2023/07/30 13:03:35;;;;;;;2.00;1.10;;;;;;;;;;4914507;29;20476;-70
2023/07/30 13:06:04;;;;;;;2.87;1.67;;;;;;;;;;4915911;29;20575;-67
2023/07/30 13:08:31;;;;;;;2.40;1.43;;;;;;;;;;4909249;29;20468;-66
2023/07/30 13:10:58;;;;;;;1.93;0.90;;;;;;;;;;4915710;29;20460;-66
2023/07/30 13:13:26;;;;;;;2.10;1.20;;;;;;;;;;4914170;29;20460;-67
2023/07/30 13:15:57;;;;;;;2.27;1.17;;;;;;;;;;4913320;29;20552;-68
2023/07/30 13:18:24;;;;;;;1.90;0.70;;;;;;;;;;4915000;29;20467;-67
2023/07/30 13:20:51;;;;;;;2.93;1.33;;;;;;;;;;4916719;29;20464;-67
2023/07/30 13:23:20;;;;;;;2.10;1.10;;;;;;;;;;4915646;29;20567;-66
2023/07/30 13:25:47;;;;;;;1.70;0.90;;;;;;;;;;4915971;29;20494;-66
2023/07/30 13:28:15;;;;;;;2.50;1.17;;;;;;;;;;4913783;29;20846;-65
2023/07/30 13:30:42;;;;;;;2.83;1.13;;;;;;;;;;4913198;29;20467;-67
2023/07/30 13:33:09;;;;;;;1.80;1.20;;;;;;;;;;4916236;29;20512;-65
2023/07/30 13:35:36;;;;;;;6.13;1.30;;;;;;;;;;4916077;29;20486;-67
2023/07/30 13:38:04;;;;;;;2.87;1.00;;;;;;;;;;4915734;29;20456;-67
2023/07/30 13:40:32;;;;;;;3.00;0.80;;;;;;;;;;4914405;29;20894;-66
2023/07/30 13:42:59;;;;;;;4.73;1.00;;;;;;;;;;4913612;29;20497;-66
2023/07/30 13:45:27;;;;;;;3.30;1.37;;;;;;;;;;4911072;29;20487;-66
2023/07/30 13:47:55;;;;;;;1.90;1.07;;;;;;;;;;4915035;29;20471;-67
2023/07/30 13:50:22;;;;;;;1.80;1.17;;;;;;;;;;4914853;29;20464;-66
2023/07/30 13:52:49;;;;;;;2.20;0.97;;;;;;;;;;4917446;29;20452;-67
2023/07/30 13:55:16;;;;;;;2.00;0.93;;;;;;;;;;4915228;29;20486;-67
2023/07/30 13:57:45;;;;;;;5.40;1.40;;;;;;;;;;4909038;29;20837;-66
2023/07/30 14:00:12;;;;;;;1.70;0.90;;;;;;;;;;4910748;29;20467;-66
2023/07/30 14:02:39;;;;;;;2.00;0.93;;;;;;;;;;4913406;29;20594;-66
2023/07/30 14:05:07;;;;;;;1.67;0.87;;;;;;;;;;4913834;29;20504;-66
2023/07/30 14:07:34;;;;;;;2.60;1.10;;;;;;;;;;4914808;29;20488;-66
2023/07/30 14:10:01;;;;;;;2.10;1.10;;;;;;;;;;4913404;29;20472;-66
2023/07/30 14:12:29;;;;;;;2.20;1.10;;;;;;;;;;4912710;29;20463;-68
2023/07/30 14:14:57;;;;;;;2.83;1.20;;;;;;;;;;4913326;29;20475;-64
2023/07/30 14:17:24;;;;;;;1.93;0.90;;;;;;;;;;4908413;29;20583;-65
2023/07/30 14:19:51;;;;;;;2.90;1.00;;;;;;;;;;4910645;29;20551;-66
2023/07/30 14:22:18;;;;;;;1.80;1.07;;;;;;;;;;4912762;29;20495;-65
2023/07/30 14:24:45;;;;;;;1.43;0.80;;;;;;;;;;4913306;29;20468;-67
2023/07/30 14:27:12;;;;;;;1.93;1.00;;;;;;;;;;4913345;29;20513;-65
2023/07/30 14:29:40;;;;;;;2.33;1.00;;;;;;;;;;4911340;29;20464;-66
2023/07/30 14:32:09;;;;;;;2.27;1.00;;;;;;;;;;4913974;29;20467;-68
2023/07/30 14:34:36;;;;;;;2.17;1.30;;;;;;;;;;4915819;29;20448;-68
2023/07/30 14:37:03;;;;;;;1.80;1.10;;;;;;;;;;4912928;29;20985;-66
2023/07/30 14:39:30;;;;;;;2.33;1.13;;;;;;;;;;4913781;29;20468;-66
2023/07/30 14:41:57;;;;;;;2.27;1.10;;;;;;;;;;4913304;29;20539;-66
2023/07/30 14:44:24;;;;;;;7.47;1.10;;;;;;;;;;4914928;29;20466;-66
2023/07/30 14:46:52;;;;;;;1.80;1.03;;;;;;;;;;4913893;29;20480;-66